createdAt,value
2023-02-15T00:02:25.963Z,7.25
2023-02-15T00:04:59.222Z,8.48
2023-02-15T00:07:31.351Z,7.28
2023-02-15T00:10:02.612Z,9.82
2023-02-15T00:12:34.099Z,7.75
2023-02-15T00:15:05.924Z,8.23
2023-02-15T00:17:36.253Z,6.75
2023-02-15T00:20:08.559Z,8.23
2023-02-15T00:22:42.780Z,6.95
2023-02-15T00:25:22.291Z,6.32
2023-02-15T00:27:52.803Z,4.72
2023-02-15T00:30:25.767Z,5.85
2023-02-15T00:32:57.298Z,7.88
2023-02-15T00:35:39.457Z,7.35
2023-02-15T00:38:13.798Z,7.30
2023-02-15T00:40:47.382Z,8.10
2023-02-15T00:43:18.511Z,7.32
2023-02-15T00:45:50.362Z,8.40
2023-02-15T00:48:29.716Z,4.75
2023-02-15T00:51:02.916Z,5.45
2023-02-15T00:53:38.338Z,6.07
2023-02-15T00:56:09.787Z,7.90
2023-02-15T00:58:40.558Z,5.38
2023-02-15T01:01:20.333Z,6.55
2023-02-15T01:03:53.752Z,6.72
2023-02-15T01:06:24.069Z,4.15
2023-02-15T01:08:55.532Z,6.55
2023-02-15T01:11:29.045Z,6.22
2023-02-15T01:14:08.726Z,5.38
2023-02-15T01:16:43.364Z,3.17
2023-02-15T01:19:17.314Z,6.35
2023-02-15T01:21:50.539Z,5.72
2023-02-15T01:24:36.520Z,4.90
2023-02-15T01:27:16.378Z,4.75
2023-02-15T01:29:47.124Z,4.88
2023-02-15T01:32:19.603Z,4.97
2023-02-15T01:34:51.206Z,4.18
2023-02-15T01:37:26.868Z,9.57
2023-02-15T01:40:00.745Z,4.68
2023-02-15T01:42:35.808Z,4.35
2023-02-15T01:45:38.517Z,5.30
2023-02-15T01:48:27.460Z,6.72
2023-02-15T01:51:08.402Z,4.60
2023-02-15T01:53:48.180Z,3.58
2023-02-15T01:56:41.646Z,3.58
2023-02-15T01:59:23.214Z,4.38
2023-02-15T02:01:58.436Z,3.88
2023-02-15T02:07:36.525Z,4.35
2023-02-15T02:10:12.368Z,3.85
2023-02-15T02:12:50.468Z,3.95
2023-02-15T02:15:29.462Z,4.53
2023-02-15T02:18:20.182Z,2.97
2023-02-15T02:21:20.506Z,3.45
2023-02-15T02:24:21.478Z,3.78
2023-02-15T02:30:44.199Z,3.20
2023-02-15T02:33:34.693Z,3.40
2023-02-15T02:36:15.598Z,4.32
2023-02-15T02:39:20.113Z,4.60
2023-02-15T02:42:11.830Z,3.58
2023-02-15T02:44:49.077Z,4.03
2023-02-15T02:47:32.399Z,2.78
2023-02-15T02:50:08.725Z,2.95
2023-02-15T02:52:55.566Z,5.03
2023-02-15T02:55:44.573Z,3.60
2023-02-15T02:58:54.138Z,4.65
2023-02-15T03:01:52.059Z,3.45
2023-02-15T03:04:39.242Z,5.22
2023-02-15T03:07:15.167Z,2.80
2023-02-15T03:12:50.235Z,4.82
2023-02-15T03:15:27.248Z,3.80
2023-02-15T03:18:05.815Z,3.75
2023-02-15T03:20:42.368Z,3.47
2023-02-15T03:23:24.579Z,4.97
2023-02-15T03:26:02.090Z,4.13
2023-02-15T03:29:03.808Z,2.97
2023-02-15T03:31:44.438Z,4.78
2023-02-15T03:34:21.912Z,3.78
2023-02-15T03:37:08.167Z,3.65
2023-02-15T03:39:51.712Z,2.65
2023-02-15T03:42:37.380Z,3.88
2023-02-15T03:45:15.188Z,2.83
2023-02-15T03:47:51.915Z,3.45
2023-02-15T03:50:46.094Z,2.72
2023-02-15T03:53:27.075Z,3.28
2023-02-15T03:56:03.647Z,4.60
2023-02-15T03:58:56.080Z,3.45
2023-02-15T04:02:01.399Z,4.63
2023-02-15T04:04:43.470Z,4.95
2023-02-15T04:07:17.052Z,4.82
2023-02-15T04:10:06.331Z,11.98
2023-02-15T04:12:39.532Z,13.68
2023-02-15T04:15:31.346Z,10.05
2023-02-15T04:18:08.530Z,14.32
2023-02-15T04:20:57.298Z,21.90
2023-02-15T04:23:49.791Z,10.73
2023-02-15T04:26:21.565Z,16.30
2023-02-15T04:28:53.043Z,25.38
2023-02-15T04:31:27.125Z,66.55
2023-02-15T04:33:58.750Z,77.10
2023-02-15T04:36:31.352Z,82.60
2023-02-15T04:39:02.325Z,50.50
2023-02-15T04:41:37.637Z,59.78
2023-02-15T04:44:10.717Z,50.63
2023-02-15T04:46:43.602Z,53.05
2023-02-15T04:49:14.604Z,37.10
2023-02-15T04:51:45.859Z,24.45
2023-02-15T04:54:17.053Z,8.10
2023-02-15T04:56:53.265Z,3.83
2023-02-15T04:59:24.976Z,3.97
2023-02-15T05:01:57.470Z,5.13
2023-02-15T05:04:28.043Z,3.30
2023-02-15T05:07:00.258Z,3.22
2023-02-15T05:09:31.226Z,3.70
2023-02-15T05:12:07.304Z,4.05
2023-02-15T05:14:37.719Z,3.22
2023-02-15T05:17:11.699Z,3.60
2023-02-15T05:19:42.905Z,3.05
2023-02-15T05:22:14.580Z,4.22
2023-02-15T05:25:04.291Z,3.10
2023-02-15T05:27:52.676Z,3.50
2023-02-15T05:30:35.644Z,5.85
2023-02-15T05:35:43.924Z,5.00
2023-02-15T05:38:17.337Z,3.80
2023-02-15T05:40:50.140Z,2.85
2023-02-15T05:43:21.991Z,3.17
2023-02-15T05:45:54.376Z,2.88
2023-02-15T05:48:42.954Z,5.35
2023-02-15T05:51:19.082Z,3.65
2023-02-15T05:53:49.787Z,3.42
2023-02-15T05:56:19.840Z,4.88
2023-02-15T05:58:58.561Z,4.20
2023-02-15T06:01:29.532Z,4.60
2023-02-15T06:04:03.568Z,3.08
2023-02-15T06:06:34.094Z,3.72
2023-02-15T06:09:09.897Z,3.47
2023-02-15T06:11:42.972Z,2.92
2023-02-15T06:14:14.935Z,2.85
2023-02-15T06:16:46.362Z,3.35
2023-02-15T06:19:20.403Z,3.42
2023-02-15T06:21:50.476Z,3.55
2023-02-15T06:24:22.830Z,4.57
2023-02-15T06:26:55.797Z,3.85
2023-02-15T06:32:09.510Z,56.90
2023-02-15T06:34:44.429Z,49.03
2023-02-15T06:37:15.724Z,63.67
2023-02-15T06:39:47.491Z,30.13
2023-02-15T06:42:21.717Z,36.90
2023-02-15T06:44:55.118Z,20.77
2023-02-15T06:47:25.902Z,18.48
2023-02-15T06:49:57.401Z,19.02
2023-02-15T06:52:31.534Z,18.17
2023-02-15T06:55:03.548Z,16.00
2023-02-15T06:57:45.287Z,5.60
2023-02-15T07:00:22.122Z,11.45
2023-02-15T07:05:54.296Z,5.25
2023-02-15T07:08:29.834Z,7.47
2023-02-15T07:11:28.297Z,6.93
2023-02-15T07:14:01.279Z,4.80
2023-02-15T07:16:34.181Z,4.63
2023-02-15T07:19:05.917Z,4.57
2023-02-15T07:21:38.552Z,4.75
2023-02-15T07:24:09.843Z,4.53
2023-02-15T07:26:43.939Z,4.25
2023-02-15T07:29:16.003Z,4.00
2023-02-15T07:31:54.525Z,3.80
2023-02-15T07:34:36.064Z,5.43
2023-02-15T07:37:13.102Z,4.47
2023-02-15T07:39:47.142Z,4.43
2023-02-15T07:42:22.436Z,4.55
2023-02-15T07:44:55.550Z,3.45
2023-02-15T07:47:26.809Z,5.22
2023-02-15T07:50:25.599Z,6.10
2023-02-15T07:53:00.945Z,4.20
2023-02-15T07:55:34.458Z,7.55
2023-02-15T07:58:20.603Z,4.70
2023-02-15T08:01:00.646Z,5.38
2023-02-15T08:03:37.562Z,4.30
2023-02-15T08:06:10.710Z,5.05
2023-02-15T08:08:43.856Z,4.05
2023-02-15T08:11:45.678Z,5.70
2023-02-15T08:14:27.127Z,4.10
2023-02-15T08:17:14.327Z,3.90
2023-02-15T08:19:50.397Z,2.53
2023-02-15T08:22:23.618Z,4.28
2023-02-15T08:24:56.186Z,4.10
2023-02-15T08:27:45.650Z,2.65
2023-02-15T08:30:18.824Z,4.32
2023-02-15T08:32:53.993Z,4.90
2023-02-15T08:35:24.515Z,4.47
2023-02-15T08:37:56.562Z,4.72
2023-02-15T08:40:29.855Z,3.88
2023-02-15T08:43:01.071Z,5.07
2023-02-15T08:45:36.068Z,5.28
2023-02-15T08:48:16.071Z,6.03
2023-02-15T08:50:46.897Z,5.95
2023-02-15T08:53:16.986Z,4.00
2023-02-15T08:56:03.352Z,4.75
2023-02-15T08:58:36.615Z,5.43
2023-02-15T09:01:34.160Z,3.35
2023-02-15T09:04:20.017Z,4.07
2023-02-15T09:07:01.922Z,5.07
2023-02-15T09:09:34.877Z,5.63
2023-02-15T09:12:08.378Z,5.65
2023-02-15T09:14:43.622Z,4.65
2023-02-15T09:22:33.658Z,3.17
2023-02-15T09:25:05.043Z,3.35
2023-02-15T09:27:44.012Z,5.30
2023-02-15T09:30:15.273Z,2.67
2023-02-15T09:32:53.343Z,3.47
2023-02-15T09:35:25.784Z,3.85
2023-02-15T09:37:59.159Z,3.10
2023-02-15T09:40:47.649Z,6.03
2023-02-15T09:43:53.367Z,3.60
2023-02-15T09:46:29.871Z,4.45
2023-02-15T09:49:23.536Z,4.53
2023-02-15T09:52:30.711Z,51.63
2023-02-15T09:55:45.598Z,97.95
2023-02-15T09:58:56.939Z,84.13
2023-02-15T10:01:51.051Z,68.40
2023-02-15T10:05:03.991Z,71.07
2023-02-15T10:07:53.994Z,65.70
2023-02-15T10:10:28.455Z,25.55
2023-02-15T10:13:45.863Z,11.40
2023-02-15T10:16:50.281Z,77.57
2023-02-15T10:19:49.335Z,120.32
2023-02-15T10:22:46.193Z,81.30
2023-02-15T10:25:38.768Z,75.60
2023-02-15T10:28:37.412Z,76.28
2023-02-15T10:31:34.831Z,47.45
2023-02-15T10:34:32.357Z,44.35
2023-02-15T10:37:18.862Z,32.17
2023-02-15T10:40:08.252Z,36.22
2023-02-15T10:43:03.118Z,22.15
2023-02-15T10:45:59.994Z,28.65
2023-02-15T10:48:34.681Z,25.00
2023-02-15T10:51:12.659Z,32.70
2023-02-15T10:57:35.246Z,38.25
2023-02-15T11:00:33.592Z,62.40
2023-02-15T11:03:28.096Z,39.28
2023-02-15T11:06:25.635Z,42.15
2023-02-15T11:09:30.793Z,49.90
2023-02-15T11:12:06.600Z,24.90
2023-02-15T11:14:46.680Z,30.33
2023-02-15T11:17:35.459Z,45.50
2023-02-15T11:21:13.188Z,29.13
2023-02-15T11:23:59.072Z,32.63
2023-02-15T11:27:03.755Z,48.45
2023-02-15T11:33:16.261Z,47.08
2023-02-15T11:36:05.059Z,34.47
2023-02-15T11:38:47.171Z,34.60
2023-02-15T11:41:39.317Z,27.88
2023-02-15T11:44:53.069Z,24.85
2023-02-15T11:47:36.488Z,34.63
2023-02-15T11:50:29.334Z,37.72
2023-02-15T11:53:29.312Z,36.50
2023-02-15T11:56:35.859Z,55.67
2023-02-15T12:00:00.717Z,52.38
2023-02-15T12:02:40.170Z,66.75
2023-02-15T12:05:19.158Z,41.20
2023-02-15T12:09:00.353Z,39.28
2023-02-15T12:11:51.958Z,30.50
2023-02-15T12:14:29.657Z,45.42
2023-02-15T12:17:11.881Z,18.85
2023-02-15T12:19:55.573Z,6.13
2023-02-15T12:22:36.608Z,2.38
2023-02-15T12:25:47.048Z,3.72
2023-02-15T12:28:47.774Z,4.90
2023-02-15T12:31:56.651Z,2.22
2023-02-15T12:34:45.393Z,3.55
2023-02-15T12:41:12.324Z,4.85
2023-02-15T12:43:47.362Z,2.45
2023-02-15T12:49:22.300Z,2.67
2023-02-15T12:52:44.765Z,3.13
2023-02-15T12:55:45.444Z,2.63
2023-02-15T12:59:11.289Z,2.55
2023-02-15T13:01:48.444Z,4.40
2023-02-15T13:04:44.384Z,2.33
2023-02-15T13:10:40.664Z,3.50
2023-02-15T13:13:51.003Z,5.55
2023-02-15T13:16:39.913Z,5.82
2023-02-15T13:20:27.168Z,5.43
2023-02-15T13:23:25.105Z,3.72
2023-02-15T13:26:01.788Z,3.85
2023-02-15T13:28:59.331Z,3.78
2023-02-15T13:31:37.213Z,2.50
2023-02-15T13:34:39.983Z,2.67
2023-02-15T13:37:21.728Z,3.40
2023-02-15T13:40:01.449Z,2.75
2023-02-15T13:42:43.202Z,2.70
2023-02-15T13:45:41.342Z,3.50
2023-02-15T13:48:51.044Z,2.28
2023-02-15T13:52:05.885Z,2.38
2023-02-15T13:55:23.361Z,2.72
2023-02-15T13:58:20.832Z,2.88
2023-02-15T14:01:27.132Z,2.25
2023-02-15T14:04:56.069Z,4.78
2023-02-15T14:08:09.137Z,2.63
2023-02-15T14:11:26.431Z,2.30
2023-02-15T14:14:51.231Z,2.45
2023-02-15T14:17:31.296Z,1.67
2023-02-15T14:20:38.370Z,1.75
2023-02-15T14:27:20.711Z,2.33
2023-02-15T14:30:27.412Z,2.05
2023-02-15T14:33:38.884Z,1.88
2023-02-15T14:36:15.366Z,2.28
2023-02-15T14:39:40.033Z,1.60
2023-02-15T14:42:40.395Z,2.13
2023-02-15T14:45:45.430Z,3.00
2023-02-15T14:48:29.799Z,1.88
2023-02-15T14:51:06.532Z,3.10
2023-02-15T14:53:41.581Z,1.67
2023-02-15T14:56:29.833Z,1.88
2023-02-15T14:59:30.923Z,3.15
2023-02-15T15:02:22.602Z,1.63
2023-02-15T15:05:25.442Z,1.52
2023-02-15T15:08:06.786Z,2.20
2023-02-15T15:10:47.779Z,1.98
2023-02-15T15:13:35.040Z,2.08
2023-02-15T15:22:51.835Z,1.42
2023-02-15T15:26:12.447Z,2.63
2023-02-15T15:36:09.061Z,2.30
2023-02-15T15:39:30.309Z,1.75
2023-02-15T15:42:21.987Z,3.13
2023-02-15T15:45:36.919Z,2.25
2023-02-15T15:48:57.513Z,1.60
2023-02-15T15:51:51.268Z,2.55
2023-02-15T15:54:46.436Z,1.52
2023-02-15T15:57:44.358Z,3.38
2023-02-15T16:00:46.327Z,1.80
2023-02-15T16:06:44.132Z,2.10
2023-02-15T16:09:51.393Z,2.22
2023-02-15T16:15:22.058Z,2.55
2023-02-15T16:18:17.691Z,1.75
2023-02-15T16:21:04.487Z,1.40
2023-02-15T16:24:23.791Z,3.10
2023-02-15T16:27:53.956Z,3.08
2023-02-15T16:30:42.810Z,1.77
2023-02-15T16:33:23.830Z,1.67
2023-02-15T16:36:15.771Z,1.40
2023-02-15T16:38:58.383Z,1.58
2023-02-15T16:42:09.189Z,2.25
2023-02-15T16:45:46.379Z,1.40
2023-02-15T16:51:32.645Z,1.48
2023-02-15T16:54:58.571Z,1.50
2023-02-15T17:01:06.201Z,3.05
2023-02-15T17:03:56.815Z,2.83
2023-02-15T17:06:59.646Z,1.50
2023-02-15T17:09:40.566Z,2.13
2023-02-15T17:12:38.299Z,1.95
2023-02-15T17:15:47.586Z,2.15
2023-02-15T17:18:43.208Z,2.45
2023-02-15T17:21:35.551Z,2.50
2023-02-15T17:25:02.661Z,1.75
2023-02-15T17:27:57.228Z,1.80
2023-02-15T17:30:37.401Z,2.70
2023-02-15T17:39:34.084Z,2.10
2023-02-15T17:42:10.998Z,2.90
2023-02-15T17:44:58.703Z,2.42
2023-02-15T17:47:46.079Z,2.13
2023-02-15T17:50:29.255Z,2.10
2023-02-15T17:53:14.834Z,2.28
2023-02-15T17:55:57.422Z,5.47
2023-02-15T17:58:52.364Z,3.50
2023-02-15T18:08:00.582Z,34.65
2023-02-15T18:11:02.011Z,31.30
2023-02-15T18:13:39.718Z,43.17
2023-02-15T18:16:41.638Z,48.60
2023-02-15T18:19:41.733Z,29.75
2023-02-15T18:22:22.316Z,30.13
2023-02-15T18:25:01.696Z,28.83
2023-02-15T18:27:34.653Z,32.65
2023-02-15T18:30:34.314Z,29.95
2023-02-15T18:33:46.726Z,30.00
2023-02-15T18:36:52.102Z,44.70
2023-02-15T18:39:48.826Z,46.67
2023-02-15T18:42:33.992Z,47.35
2023-02-15T18:45:45.321Z,32.95
2023-02-15T18:48:47.046Z,37.53
2023-02-15T18:55:03.765Z,32.55
2023-02-15T18:57:45.479Z,28.98
2023-02-15T19:06:55.978Z,43.53
2023-02-15T19:09:41.250Z,39.78
2023-02-15T19:12:32.573Z,38.17
2023-02-15T19:15:18.375Z,52.53
2023-02-15T19:18:05.008Z,50.55
2023-02-15T19:20:45.511Z,39.45
2023-02-15T19:29:34.777Z,32.78
2023-02-15T19:35:30.357Z,35.75
2023-02-15T19:38:06.423Z,50.88
2023-02-15T19:40:39.344Z,57.70
2023-02-15T19:43:34.804Z,40.97
2023-02-15T19:46:26.370Z,40.08
2023-02-15T19:49:24.359Z,30.25
2023-02-15T19:52:23.362Z,35.25
2023-02-15T19:57:57.733Z,28.02
2023-02-15T20:00:50.338Z,30.00
2023-02-15T20:03:41.343Z,37.80
2023-02-15T20:06:46.850Z,34.17
2023-02-15T20:09:54.973Z,45.10
2023-02-15T20:12:37.140Z,34.97
2023-02-15T20:21:38.618Z,38.83
2023-02-15T20:24:37.669Z,33.42
2023-02-15T20:30:35.510Z,41.88
2023-02-15T20:36:04.304Z,37.75
2023-02-15T20:38:48.034Z,23.70
2023-02-15T20:41:48.885Z,47.28
2023-02-15T21:56:31.009Z,25.08
2023-02-15T21:59:33.952Z,19.35
2023-02-15T22:02:41.699Z,26.75
2023-02-15T22:08:56.452Z,35.35
2023-02-15T22:12:18.717Z,24.00
2023-02-15T22:18:12.524Z,32.03
2023-02-15T22:20:46.282Z,53.05
2023-02-15T22:23:28.294Z,23.00
2023-02-15T22:26:13.611Z,29.35
2023-02-15T22:28:54.476Z,36.17
2023-02-15T22:31:52.360Z,47.22
2023-02-15T22:34:57.519Z,27.08
2023-02-15T22:37:32.621Z,78.40
2023-02-15T22:40:18.996Z,48.97
2023-02-15T22:46:33.865Z,40.28
2023-02-15T22:49:04.940Z,41.25
2023-02-15T22:51:38.131Z,43.78
2023-02-15T22:54:14.501Z,37.20
2023-02-15T22:57:34.099Z,41.67
2023-02-15T23:00:57.155Z,46.92
2023-02-15T23:04:03.210Z,36.72
2023-02-15T23:06:42.479Z,35.28
2023-02-15T23:10:04.968Z,43.35
2023-02-15T23:13:00.418Z,30.83
2023-02-15T23:15:39.922Z,26.50
2023-02-15T23:19:02.650Z,46.67
2023-02-15T23:21:56.419Z,27.50
2023-02-15T23:24:38.255Z,40.03
2023-02-15T23:27:57.809Z,46.65
2023-02-15T23:36:57.766Z,36.78
2023-02-15T23:43:06.173Z,28.80
2023-02-15T23:45:52.348Z,48.10
2023-02-15T23:48:36.498Z,19.77
2023-02-15T23:51:30.045Z,21.48
2023-02-15T23:54:36.270Z,42.67
2023-02-15T23:57:08.389Z,33.33
